createdAt,value
2022-12-25T00:03:16.957Z,7.58
2022-12-25T00:08:13.153Z,8.5
2022-12-25T00:13:09.390Z,8.24
2022-12-25T00:18:05.631Z,8.700000000000001
2022-12-25T00:23:01.880Z,7.459999999999999
2022-12-25T00:27:58.151Z,5.74
2022-12-25T00:32:54.419Z,7.58
2022-12-25T00:37:50.727Z,8.02
2022-12-25T00:42:47.926Z,9.46
2022-12-25T00:47:43.198Z,8.48
2022-12-25T00:52:38.440Z,7.980000000000001
2022-12-25T00:57:35.724Z,7.68
2022-12-25T01:02:32.172Z,8.92
2022-12-25T01:07:28.241Z,9.440000000000001
2022-12-25T01:12:24.500Z,8.580000000000002
2022-12-25T01:17:20.765Z,6.2
2022-12-25T01:22:17.022Z,6.1
2022-12-25T01:27:13.268Z,5.64
2022-12-25T01:32:09.562Z,7.959999999999999
2022-12-25T01:37:04.763Z,8.2
2022-12-25T01:42:00.088Z,5.839999999999999
2022-12-25T01:46:56.322Z,5.839999999999999
2022-12-25T01:51:57.587Z,5.42
2022-12-25T01:56:54.856Z,4.58
2022-12-25T02:01:51.337Z,6.220000000000001
2022-12-25T02:06:48.360Z,5.08
2022-12-25T02:11:44.576Z,4.78
2022-12-25T02:16:56.808Z,5.08
2022-12-25T02:22:01.090Z,3.8
2022-12-25T02:27:08.301Z,4.680000000000001
2022-12-25T02:32:14.565Z,4.42
2022-12-25T02:37:16.743Z,3.8200000000000003
2022-12-25T02:42:18.045Z,4.359999999999999
2022-12-25T02:47:16.270Z,4.619999999999999
2022-12-25T02:52:15.532Z,3.54
2022-12-25T02:57:14.766Z,3.9200000000000004
2022-12-25T03:02:12.255Z,3.9200000000000004
2022-12-25T03:07:10.297Z,4.32
2022-12-25T03:12:09.547Z,3.4200000000000004
2022-12-25T03:17:05.850Z,4.18
2022-12-25T03:22:03.029Z,4.74
2022-12-25T03:26:59.324Z,4.760000000000001
2022-12-25T03:32:03.537Z,3.9799999999999995
2022-12-25T03:37:10.808Z,4.220000000000001
2022-12-25T03:42:13.054Z,44.32
2022-12-25T03:47:16.253Z,34.160000000000004
2022-12-25T03:52:15.542Z,6.4399999999999995
2022-12-25T03:57:12.782Z,6.62
2022-12-25T04:02:09.163Z,3.8200000000000003
2022-12-25T04:07:05.310Z,4.159999999999999
2022-12-25T04:12:02.737Z,14.219999999999999
2022-12-25T04:16:59.794Z,8.98
2022-12-25T04:21:56.099Z,7.719999999999999
2022-12-25T04:26:52.329Z,5.720000000000001
2022-12-25T04:31:48.620Z,4.68
2022-12-25T04:36:44.867Z,4.720000000000001
2022-12-25T04:41:42.084Z,4.720000000000001
2022-12-25T04:46:37.433Z,4.5600000000000005
2022-12-25T04:51:38.642Z,14.16
2022-12-25T04:56:38.534Z,12.4
2022-12-25T05:01:36.279Z,9.239999999999998
2022-12-25T05:06:32.379Z,11.500000000000002
2022-12-25T05:11:30.646Z,9.080000000000002
2022-12-25T05:16:26.949Z,5.2
2022-12-25T05:21:23.125Z,4.8
2022-12-25T05:26:21.405Z,4.64
2022-12-25T05:31:17.724Z,4.88
2022-12-25T05:36:13.932Z,5.459999999999999
2022-12-25T05:41:11.155Z,4.5
2022-12-25T05:46:07.498Z,7.56
2022-12-25T05:51:04.725Z,4.260000000000001
2022-12-25T05:56:01.964Z,4.54
2022-12-25T06:00:58.229Z,5.159999999999999
2022-12-25T06:05:54.479Z,11.92
2022-12-25T06:10:50.710Z,15.36
2022-12-25T06:15:46.988Z,26.2
2022-12-25T06:20:43.241Z,13.459999999999999
2022-12-25T06:25:39.480Z,10.74
2022-12-25T06:30:35.828Z,9.66
2022-12-25T06:40:37.278Z,16.36
2022-12-25T06:45:35.105Z,36.86
2022-12-25T06:50:31.846Z,24.04
2022-12-25T06:55:28.040Z,35.82000000000001
2022-12-25T07:00:24.299Z,23.060000000000002
2022-12-25T07:05:20.593Z,24.380000000000003
2022-12-25T07:10:16.837Z,19.96
2022-12-25T07:15:13.127Z,35.519999999999996
2022-12-25T07:20:09.315Z,22.9
2022-12-25T07:25:05.603Z,25.82
2022-12-25T07:30:01.855Z,36.3
2022-12-25T07:34:58.129Z,38.660000000000004
2022-12-25T07:39:54.366Z,24.84
2022-12-25T07:44:50.624Z,29.24
2022-12-25T07:49:46.883Z,39.68
2022-12-25T07:54:43.196Z,21.46
2022-12-25T07:59:39.381Z,12.2
2022-12-25T08:04:35.692Z,31.76
2022-12-25T08:09:34.912Z,31.46
2022-12-25T08:14:31.173Z,48.42
2022-12-25T08:19:27.439Z,48.36
2022-12-25T08:24:23.686Z,48
2022-12-25T08:29:19.931Z,83.34
2022-12-25T08:34:15.222Z,105.04
2022-12-25T08:39:11.500Z,74.94
2022-12-25T08:44:07.731Z,68.24
2022-12-25T08:49:04.011Z,48.98
2022-12-25T08:54:00.263Z,40.86
2022-12-25T08:58:57.524Z,87.9
2022-12-25T09:03:52.812Z,65.28
2022-12-25T09:08:49.970Z,36.940000000000005
2022-12-25T09:13:46.292Z,33.6
2022-12-25T09:18:42.595Z,33.44
2022-12-25T09:23:38.806Z,23.34
2022-12-25T09:28:35.103Z,29.7
2022-12-25T09:33:31.351Z,35.88000000000001
2022-12-25T09:38:27.608Z,43
2022-12-25T09:43:26.887Z,57.760000000000005
2022-12-25T09:48:23.113Z,77.91999999999999
2022-12-25T09:53:23.373Z,71.34
2022-12-25T09:58:21.619Z,72.92
2022-12-25T10:03:31.904Z,93.17999999999999
2022-12-25T10:08:47.081Z,42.36
2022-12-25T10:13:57.261Z,52.17999999999999
2022-12-25T10:19:06.523Z,57.25999999999999
2022-12-25T10:24:07.730Z,63.5
2022-12-25T10:34:13.235Z,82.29999999999998
2022-12-25T10:39:11.542Z,85.78
2022-12-25T10:49:20.982Z,74.2
2022-12-25T10:54:20.198Z,63.379999999999995
2022-12-25T10:59:16.492Z,29.48
2022-12-25T11:04:17.723Z,25.560000000000002
2022-12-25T11:09:15.993Z,16.56
2022-12-25T11:14:18.213Z,13.540000000000001
2022-12-25T11:26:59.327Z,24.88
2022-12-25T11:32:01.570Z,10.86
2022-12-25T11:42:12.076Z,9
2022-12-25T11:47:15.290Z,10.440000000000001
2022-12-25T11:52:13.533Z,41.279999999999994
2022-12-25T11:57:10.821Z,12.819999999999999
2022-12-25T12:02:16.204Z,28.02
2022-12-25T12:07:21.300Z,69.42
2022-12-25T12:12:26.540Z,74.38
2022-12-25T12:17:22.755Z,24.9
2022-12-25T12:22:21.037Z,34.62
2022-12-25T12:27:21.284Z,26
2022-12-25T12:32:25.478Z,18.46
2022-12-25T12:37:25.776Z,40.839999999999996
2022-12-25T12:42:24.028Z,20.36
2022-12-25T12:47:30.277Z,16.32
2022-12-25T12:52:36.499Z,10.28
2022-12-25T12:57:34.736Z,14.14
2022-12-25T13:02:50.127Z,14.74
2022-12-25T13:07:56.213Z,11.099999999999998
2022-12-25T13:12:54.478Z,13.959999999999999
2022-12-25T13:17:54.708Z,18.06
2022-12-25T13:22:54.927Z,13.52
2022-12-25T13:27:55.186Z,11.56
2022-12-25T13:32:53.519Z,13.7
2022-12-25T13:37:50.686Z,15.780000000000001
2022-12-25T13:42:48.923Z,18.64
2022-12-25T13:47:54.644Z,17.88
2022-12-25T13:52:49.551Z,17.779999999999998
2022-12-25T13:57:46.730Z,17.7
2022-12-25T14:02:49.119Z,23.800000000000004
2022-12-25T14:07:50.262Z,16.580000000000002
2022-12-25T14:12:47.478Z,24.48
2022-12-25T14:17:43.766Z,24.4
2022-12-25T14:22:48.044Z,35.58
2022-12-25T14:27:50.215Z,40.5
2022-12-25T14:32:49.466Z,27.28
2022-12-25T14:37:48.720Z,31.28
2022-12-25T14:42:54.972Z,45.8
2022-12-25T14:47:53.178Z,58.86
2022-12-25T14:52:50.436Z,95.94000000000001
2022-12-25T14:57:50.728Z,51.199999999999996
2022-12-25T15:02:50.322Z,70.44000000000001
2022-12-25T15:08:00.193Z,132.04000000000002
2022-12-25T15:12:56.493Z,55.08
2022-12-25T15:17:55.720Z,52.48
2022-12-25T15:23:18.550Z,57.64
2022-12-25T15:27:53.210Z,61.71999999999999
2022-12-25T15:32:50.481Z,69.1
2022-12-25T15:37:46.743Z,55.1
2022-12-25T15:42:44.994Z,49.82000000000001
2022-12-25T15:47:41.229Z,52.36
2022-12-25T15:52:37.479Z,62.260000000000005
2022-12-25T15:57:33.742Z,59.339999999999996
2022-12-25T16:02:31.069Z,50.58
2022-12-25T16:07:27.298Z,62.220000000000006
2022-12-25T16:12:23.555Z,71.23999999999998
2022-12-25T16:17:19.822Z,64.72
2022-12-25T16:22:19.035Z,41.78
2022-12-25T16:27:15.300Z,37.779999999999994
2022-12-25T16:32:11.568Z,46.199999999999996
2022-12-25T16:37:07.814Z,38.88
2022-12-25T16:42:04.077Z,27.959999999999997
2022-12-25T16:47:00.513Z,33.78
2022-12-25T16:51:56.607Z,42.260000000000005
2022-12-25T16:56:52.845Z,42.919999999999995
2022-12-25T17:01:50.205Z,36.44
2022-12-25T17:06:48.344Z,28.339999999999996
2022-12-25T17:11:44.633Z,24.36
2022-12-25T17:16:44.978Z,24.66
2022-12-25T17:21:41.145Z,22.7
2022-12-25T17:26:37.423Z,25.82
2022-12-25T17:31:33.687Z,22.339999999999996
2022-12-25T17:36:32.920Z,18.54
2022-12-25T17:41:29.165Z,21.42
2022-12-25T17:46:26.478Z,20.839999999999996
2022-12-25T17:51:24.855Z,17.6
2022-12-25T17:56:21.903Z,19.6
2022-12-25T18:01:17.246Z,23.500000000000004
2022-12-25T18:06:15.447Z,33.980000000000004
2022-12-25T18:11:15.686Z,27.740000000000002
2022-12-25T18:16:12.202Z,27.339999999999996
2022-12-25T18:21:08.223Z,27.74
2022-12-25T18:26:05.492Z,34.54
2022-12-25T18:31:01.887Z,25.359999999999996
2022-12-25T18:35:59.007Z,27.860000000000003
2022-12-25T18:40:56.231Z,24.259999999999998
2022-12-25T18:45:56.571Z,34.519999999999996
2022-12-25T18:50:54.772Z,28.580000000000002
2022-12-25T18:55:51.037Z,20.46
2022-12-25T19:00:47.324Z,22.28
2022-12-25T19:05:43.544Z,21.52
2022-12-25T19:10:39.781Z,24.4
2022-12-25T19:15:40.027Z,22.060000000000002
2022-12-25T19:20:38.481Z,20.259999999999998
2022-12-25T19:25:34.543Z,22.359999999999996
2022-12-25T19:30:30.979Z,24.56
2022-12-25T19:35:27.062Z,24.880000000000003
2022-12-25T19:40:23.374Z,31.46
2022-12-25T19:45:19.585Z,23.86
2022-12-25T19:50:15.864Z,20.22
2022-12-25T19:55:12.102Z,20.639999999999997
2022-12-25T20:00:08.385Z,33
2022-12-25T20:05:04.642Z,28.919999999999998
2022-12-25T20:10:00.903Z,47.220000000000006
2022-12-25T20:14:57.328Z,39.06
2022-12-25T20:19:53.433Z,28.439999999999998
2022-12-25T20:24:49.659Z,25.38
2022-12-25T20:29:46.108Z,22.300000000000004
2022-12-25T20:34:43.203Z,21.9
2022-12-25T20:39:40.452Z,23.76
2022-12-25T20:44:36.681Z,23.46
2022-12-25T20:49:42.954Z,21.059999999999995
2022-12-25T20:54:39.203Z,18.96
2022-12-25T20:59:37.884Z,18.62
2022-12-25T21:04:34.680Z,25.98
2022-12-25T21:09:30.997Z,28
2022-12-25T21:14:27.247Z,30.660000000000004
2022-12-25T21:19:25.455Z,23.84
2022-12-25T21:24:21.742Z,21.540000000000003
2022-12-25T21:29:18.033Z,21.759999999999998
2022-12-25T21:34:14.317Z,22.48
2022-12-25T21:39:10.524Z,17.08
2022-12-25T21:44:07.827Z,19.8
2022-12-25T21:49:05.059Z,19.1
2022-12-25T21:54:01.326Z,16.36
2022-12-25T21:58:58.553Z,16.419999999999998
2022-12-25T22:03:54.800Z,20.06
2022-12-25T22:08:51.091Z,14.62
2022-12-25T22:13:47.318Z,15.059999999999999
2022-12-25T22:18:43.600Z,15.86
2022-12-25T22:23:38.852Z,14.780000000000001
2022-12-25T22:28:34.104Z,13.520000000000001
2022-12-25T22:33:30.364Z,14.919999999999998
2022-12-25T22:38:26.630Z,15.7
2022-12-25T22:43:43.386Z,15.16
2022-12-25T22:48:26.155Z,14.959999999999999
2022-12-25T22:53:22.427Z,14.34
2022-12-25T22:58:17.646Z,12.64
2022-12-25T23:03:13.970Z,17.2
2022-12-25T23:08:10.171Z,13.280000000000001
2022-12-25T23:13:06.502Z,11.239999999999998
2022-12-25T23:18:02.712Z,12.559999999999999
2022-12-25T23:22:58.961Z,13.679999999999998
2022-12-25T23:27:55.226Z,12.479999999999999
2022-12-25T23:32:52.496Z,12.26
2022-12-25T23:37:48.736Z,12.06
2022-12-25T23:42:44.988Z,10.580000000000002
2022-12-25T23:47:41.276Z,10.879999999999999
2022-12-25T23:52:37.503Z,10.96
2022-12-25T23:57:33.785Z,10.379999999999999
